Time;durP1;ratioP1;P1;durP2;ratioP2;P2;SDS_P1;SDS_P2;PMS_P1;PMS_P2;Temp;Humidity;BMP_temperature;BMP_pressure;BME280_temperature;BME280_humidity;BME280_pressure;Samples;Min_cycle;Max_cycle;Signal;HPM_P1;HPM_P2
2021/06/24 00:01:04;;;;;;;;;;;;;;;13.06;100.00;99739.06;5134015;27;19992;-76
2021/06/24 00:03:32;;;;;;;;;;;;;;;13.03;100.00;99745.50;5133950;27;20345;-76
2021/06/24 00:06:00;;;;;;;;;;;;;;;12.98;100.00;99753.59;5133773;27;19992;-76
2021/06/24 00:08:27;;;;;;;;;;;;;;;12.92;100.00;99741.25;5115738;28;19923;-76
2021/06/24 00:10:58;;;;;;;;;;;;;;;12.89;100.00;99745.69;5100737;28;20010;-76
2021/06/24 00:13:25;;;;;;;;;;;;;;;12.98;100.00;99747.97;5100389;28;20402;-76
2021/06/24 00:15:53;;;;;;;;;;;;;;;12.94;100.00;99739.59;5097431;28;20065;-76
2021/06/24 00:18:21;;;;;;;;;;;;;;;13.05;100.00;99737.47;5104804;28;19935;-76
2021/06/24 00:20:49;;;;;;;;;;;;;;;13.15;100.00;99744.13;5100804;28;20371;-76
2021/06/24 00:23:16;;;;;;;;;;;;;;;13.15;100.00;99744.13;5103460;28;19923;-76
2021/06/24 00:25:44;;;;;;;;;;;;;;;13.16;100.00;99743.69;5083323;28;19931;-76
2021/06/24 00:28:15;;;;;;;;;;;;;;;13.06;100.00;99749.47;5102115;28;19944;-76
2021/06/24 00:30:44;;;;;;;;;;;;;;;13.10;100.00;99736.97;5102233;28;19934;-76
2021/06/24 00:33:12;;;;;;;;;;;;;;;13.05;100.00;99736.66;5083013;28;20358;-76
2021/06/24 00:35:39;;;;;;;;;;;;;;;13.02;100.00;99734.72;5103374;28;19993;-76
2021/06/24 00:38:06;;;;;;;;;;;;;;;12.96;100.00;99739.19;5100699;28;19928;-76
2021/06/24 00:40:36;;;;;;;;;;;;;;;12.75;100.00;99743.09;5113536;28;19977;-76
2021/06/24 00:43:05;;;;;;;;;;;;;;;12.72;100.00;99741.13;5090667;28;19950;-76
2021/06/24 00:45:32;;;;;;;;;;;;;;;12.71;100.00;99745.13;5105931;28;19955;-76
2021/06/24 00:47:59;;;;;;;;;;;;;;;12.72;100.00;99741.13;5100069;28;19924;-76
2021/06/24 00:50:27;;;;;;;;;;;;;;;12.68;100.00;99743.97;5095135;28;20019;-76
2021/06/24 00:52:56;;;;;;;;;;;;;;;12.80;100.00;99741.84;5135157;27;19930;-76
2021/06/24 00:58:17;;;;;;;;;;;;;;;13.02;100.00;99748.75;5108948;27;20338;-76
2021/06/24 01:00:46;;;;;;;;;;;;;;;12.89;100.00;99750.53;5137257;27;19927;-76
2021/06/24 01:03:14;;;;;;;;;;;;;;;13.00;100.00;99748.38;5136786;27;19927;-76
2021/06/24 01:05:44;;;;;;;;;;;;;;;13.06;100.00;99746.66;5102395;27;20436;-76
2021/06/24 01:08:14;;;;;;;;;;;;;;;13.11;100.00;99752.63;5118573;27;19967;-76
2021/06/24 01:10:44;;;;;;;;;;;;;;;13.07;100.00;99748.28;5136996;27;20367;-76
2021/06/24 01:13:13;;;;;;;;;;;;;;;12.92;100.00;99755.28;5136780;27;19930;-76
2021/06/24 01:15:41;;;;;;;;;;;;;;;12.87;100.00;99755.75;5136856;27;19965;-77
2021/06/24 01:18:08;;;;;;;;;;;;;;;12.87;100.00;99753.75;5131360;27;19928;-76
2021/06/24 01:20:36;;;;;;;;;;;;;;;12.90;100.00;99757.72;5134395;27;19927;-76
2021/06/24 01:23:10;;;;;;;;;;;;;;;12.99;100.00;99760.78;5114267;28;19931;-76
2021/06/24 01:25:37;;;;;;;;;;;;;;;12.98;100.00;99762.00;5096245;28;19970;-76
2021/06/24 01:28:06;;;;;;;;;;;;;;;12.98;100.00;99759.19;5096656;28;19931;-76
2021/06/24 01:30:36;;;;;;;;;;;;;;;13.02;100.00;99760.75;5098361;28;19963;-76
2021/06/24 01:33:04;;;;;;;;;;;;;;;13.04;100.00;99757.53;5097425;28;20015;-76
2021/06/24 01:35:32;;;;;;;;;;;;;;;13.09;100.00;99757.84;5096781;28;20447;-76
2021/06/24 01:38:01;;;;;;;;;;;;;;;13.23;100.00;99754.03;5073390;28;19927;-75
2021/06/24 01:40:29;;;;;;;;;;;;;;;13.12;100.00;99759.81;5098212;28;19934;-75
2021/06/24 01:42:57;;;;;;;;;;;;;;;13.09;100.00;99759.84;5097279;28;20255;-75
2021/06/24 01:45:25;;;;;;;;;;;;;;;13.01;100.00;99764.78;5081137;28;19930;-75
2021/06/24 01:47:52;;;;;;;;;;;;;;;12.99;100.00;99758.78;5095567;28;19977;-75
2021/06/24 01:50:20;;;;;;;;;;;;;;;12.96;100.00;99748.41;5078159;28;19942;-75
2021/06/24 01:52:48;;;;;;;;;;;;;;;12.93;100.00;99756.84;5113861;27;19923;-75
2021/06/24 01:55:18;;;;;;;;;;;;;;;12.92;100.00;99756.06;5136132;27;19938;-75
2021/06/24 01:57:55;;;;;;;;;;;;;;;12.89;100.00;99750.53;5135852;27;19955;-76
2021/06/24 02:00:43;;;;;;;;;;;;;;;12.92;100.00;99760.88;5135218;27;19931;-75
2021/06/24 02:03:18;;;;;;;;;;;;;;;12.93;100.00;99759.66;5117574;27;20377;-75
2021/06/24 02:05:47;;;;;;;;;;;;;;;12.85;100.00;99756.16;5117546;27;19931;-75
2021/06/24 02:08:16;;;;;;;;;;;;;;;12.90;100.00;99758.50;5117389;27;19928;-75
2021/06/24 02:11:19;;;;;;;;;;;;;;;12.94;100.00;99752.81;5132001;27;20022;-75
2021/06/24 02:13:50;;;;;;;;;;;;;;;12.91;100.00;99750.88;5100339;27;19927;-75
2021/06/24 02:16:18;;;;;;;;;;;;;;;12.85;100.00;99749.75;5134128;27;19930;-75
2021/06/24 02:18:54;;;;;;;;;;;;;;;12.82;100.00;99750.59;5118657;27;19979;-75
2021/06/24 02:21:45;;;;;;;;;;;;;;;12.81;100.00;99751.81;5108649;27;19927;-76
2021/06/24 02:24:15;;;;;;;;;;;;;;;12.88;100.00;99751.72;5113430;28;19928;-75
2021/06/24 02:26:51;;;;;;;;;;;;;;;12.88;100.00;99755.31;5114785;27;19946;-75
2021/06/24 02:29:24;;;;;;;;;;;;;;;12.84;100.00;99748.19;5113588;28;19927;-75
2021/06/24 02:31:53;;;;;;;;;;;;;;;12.84;100.00;99748.97;5113150;28;19930;-76
2021/06/24 02:34:45;;;;;;;;;;;;;;;12.84;100.00;99742.56;5113500;28;20394;-76
2021/06/24 02:37:24;;;;;;;;;;;;;;;12.87;100.00;99758.56;5113528;28;20379;-74
2021/06/24 02:40:12;;;;;;;;;;;;;;;12.86;100.00;99762.59;5113779;28;20325;-75
2021/06/24 02:42:39;;;;;;;;;;;;;;;12.86;100.00;99756.97;5096095;28;20514;-75
2021/06/24 02:45:08;;;;;;;;;;;;;;;12.85;100.00;99760.97;5112930;28;20019;-75
2021/06/24 02:47:36;;;;;;;;;;;;;;;12.80;100.00;99761.47;5103802;28;20268;-75
2021/06/24 02:50:07;;;;;;;;;;;;;;;12.80;100.00;99764.28;5112909;28;19957;-76
2021/06/24 02:52:35;;;;;;;;;;;;;;;12.84;100.00;99767.81;5113927;28;19931;-75
2021/06/24 02:55:03;;;;;;;;;;;;;;;12.87;100.00;99770.56;5085484;27;19925;-75
2021/06/24 02:57:47;;;;;;;;;;;;;;;12.89;100.00;99778.56;5095948;28;20297;-75
2021/06/24 03:00:14;;;;;;;;;;;;;;;12.88;100.00;99790.97;5113993;28;20289;-75
2021/06/24 03:02:46;;;;;;;;;;;;;;;12.93;100.00;99808.16;5112684;28;19923;-75
2021/06/24 03:05:15;;;;;;;;;;;;;;;12.96;100.00;99817.72;5112950;28;19924;-75
2021/06/24 03:07:43;;;;;;;;;;;;;;;12.93;100.00;99838.19;5085415;28;20307;-76
2021/06/24 03:10:28;;;;;;;;;;;;;;;12.89;100.00;99848.69;5090547;28;19946;-75
2021/06/24 03:12:57;;;;;;;;;;;;;;;12.92;100.00;99859.84;5113692;28;19928;-76
2021/06/24 03:15:24;;;;;;;;;;;;;;;12.82;100.00;99857.16;5112827;28;19928;-76
2021/06/24 03:17:51;;;;;;;;;;;;;;;12.76;100.00;99865.25;5112737;28;19976;-76
2021/06/24 03:20:22;;;;;;;;;;;;;;;12.74;100.00;99868.47;5113722;28;19932;-76
2021/06/24 03:22:53;;;;;;;;;;;;;;;12.68;100.00;99872.97;5112520;28;19924;-75
2021/06/24 03:25:21;;;;;;;;;;;;;;;12.68;100.00;99886.97;5102846;28;19932;-76
2021/06/24 03:27:50;;;;;;;;;;;;;;;12.69;100.00;99891.38;5115848;27;19930;-75
2021/06/24 03:30:36;;;;;;;;;;;;;;;12.69;100.00;99891.38;5116155;28;19924;-76
2021/06/24 03:33:04;;;;;;;;;;;;;;;12.75;100.00;99902.94;5134293;27;19985;-75
2021/06/24 03:35:32;;;;;;;;;;;;;;;12.80;100.00;99910.09;5134271;27;19931;-76
2021/06/24 03:37:59;;;;;;;;;;;;;;;12.88;100.00;99917.19;5115908;27;19923;-76
2021/06/24 03:40:27;;;;;;;;;;;;;;;12.86;100.00;99914.03;5134180;27;20371;-76
2021/06/24 03:43:01;;;;;;;;;;;;;;;12.88;100.00;99909.59;5115855;28;19928;-76
2021/06/24 03:45:28;;;;;;;;;;;;;;;13.04;100.00;99914.66;5115625;28;19930;-75
2021/06/24 03:47:56;;;;;;;;;;;;;;;12.91;100.00;99927.56;5115888;28;19980;-76
2021/06/24 03:50:23;;;;;;;;;;;;;;;12.89;100.00;99927.22;5100614;27;20010;-76
2021/06/24 03:52:51;;;;;;;;;;;;;;;12.84;100.00;99930.47;5120028;27;19969;-75
2021/06/24 03:55:35;;;;;;;;;;;;;;;12.94;100.00;99932.34;5120077;27;20013;-76
2021/06/24 03:58:07;;;;;;;;;;;;;;;12.94;100.00;99938.78;5119747;27;19923;-76
2021/06/24 04:00:38;;;;;;;;;;;;;;;12.96;100.00;99941.16;5103287;27;19930;-76
2021/06/24 04:03:11;;;;;;;;;;;;;;;13.08;100.00;99947.06;5119793;27;20019;-76
2021/06/24 04:06:05;;;;;;;;;;;;;;;13.11;100.00;99953.81;5134631;27;20019;-75
2021/06/24 04:08:33;;;;;;;;;;;;;;;13.12;100.00;99949.78;5138088;27;19924;-76
2021/06/24 04:11:14;;;;;;;;;;;;;;;12.88;100.00;99946.03;5104661;27;19999;-76
2021/06/24 04:13:46;;;;;;;;;;;;;;;12.78;100.00;99950.56;5119662;27;19923;-75
2021/06/24 04:16:32;;;;;;;;;;;;;;;12.92;100.00;99960.03;5137696;27;20403;-75
2021/06/24 04:18:59;;;;;;;;;;;;;;;12.81;100.00;99962.97;5136667;27;19955;-76
2021/06/24 04:21:27;;;;;;;;;;;;;;;12.80;100.00;99960.56;5102662;27;19950;-76
2021/06/24 04:23:54;;;;;;;;;;;;;;;12.84;100.00;99964.13;5119337;27;19924;-76
2021/06/24 04:26:22;;;;;;;;;;;;;;;12.87;100.00;99968.91;5137305;27;19930;-76
2021/06/24 04:28:50;;;;;;;;;;;;;;;13.00;100.00;99972.78;5137713;27;19996;-76
2021/06/24 04:31:18;;;;;;;;;;;;;;;13.00;100.00;99975.59;5119206;27;19924;-76
2021/06/24 04:33:46;;;;;;;;;;;;;;;13.08;100.00;99985.53;5119169;27;19931;-75
2021/06/24 04:36:43;;;;;;;;;;;;;;;13.13;100.00;99993.50;5134242;27;20346;-76
2021/06/24 04:39:31;;;;;;;;;;;;;;;13.22;100.00;99993.78;5132312;27;19923;-76
2021/06/24 04:42:13;;;;;;;;;;;;;;;13.34;100.00;99996.03;5108718;27;19930;-76
2021/06/24 04:44:52;;;;;;;;;;;;;;;13.36;100.00;99993.63;5118929;27;20026;-76
2021/06/24 04:47:19;;;;;;;;;;;;;;;13.37;100.00;100001.63;5090900;27;19931;-76
2021/06/24 04:49:47;;;;;;;;;;;;;;;13.42;100.00;100003.19;5137246;27;19931;-76
2021/06/24 04:52:23;;;;;;;;;;;;;;;13.58;100.00;100011.78;5118890;27;19923;-76
2021/06/24 04:55:16;;;;;;;;;;;;;;;13.63;100.00;100014.13;5132582;27;19930;-76
2021/06/24 04:57:43;;;;;;;;;;;;;;;13.72;100.00;100022.81;5136866;27;19978;-76
2021/06/24 05:00:30;;;;;;;;;;;;;;;13.80;100.00;100008.25;5137116;27;19923;-76
2021/06/24 05:03:03;;;;;;;;;;;;;;;13.85;100.00;100015.41;5136099;27;19923;-76
2021/06/24 05:05:43;;;;;;;;;;;;;;;13.93;100.00;100016.91;5136871;27;19930;-76
2021/06/24 05:08:22;;;;;;;;;;;;;;;14.07;100.00;100013.91;5136804;27;19924;-76
2021/06/24 05:10:49;;;;;;;;;;;;;;;13.91;100.00;100014.53;5118470;27;20324;-76
2021/06/24 05:13:17;;;;;;;;;;;;;;;13.99;100.00;100004.78;5118208;27;20389;-76
2021/06/24 05:15:45;;;;;;;;;;;;;;;14.04;100.00;100003.50;5118457;27;19927;-76
2021/06/24 05:18:13;;;;;;;;;;;;;;;13.84;100.00;99994.94;5136537;27;19924;-76
2021/06/24 05:20:42;;;;;;;;;;;;;;;13.99;100.00;99998.34;5136871;27;19927;-76
2021/06/24 05:23:11;;;;;;;;;;;;;;;14.02;100.00;99994.69;5136333;27;19923;-75
2021/06/24 05:25:39;;;;;;;;;;;;;;;14.15;100.00;99995.69;5136049;27;19923;-76
2021/06/24 05:28:07;;;;;;;;;;;;;;;14.32;100.00;99989.03;5118071;27;20370;-76
2021/06/24 05:30:34;;;;;;;;;;;;;;;14.44;100.00;99979.97;5118275;27;20363;-76
2021/06/24 05:33:02;;;;;;;;;;;;;;;14.42;100.00;99976.78;5136183;27;19946;-76
2021/06/24 05:35:30;;;;;;;;;;;;;;;14.53;100.00;99974.59;5117981;27;20482;-76
2021/06/24 05:37:57;;;;;;;;;;;;;;;14.79;100.00;99979.34;5136200;27;19972;-76
2021/06/24 05:40:24;;;;;;;;;;;;;;;14.96;100.00;99961.34;5136217;27;19923;-76
2021/06/24 05:42:52;;;;;;;;;;;;;;;15.07;100.00;99959.09;5136114;27;20418;-76
2021/06/24 05:45:26;;;;;;;;;;;;;;;15.16;100.00;99948.06;5134764;27;19931;-76
2021/06/24 05:47:54;;;;;;;;;;;;;;;15.22;100.00;99940.69;5136241;27;19947;-76
2021/06/24 05:50:22;;;;;;;;;;;;;;;15.29;100.00;99926.50;5135954;27;19930;-76
2021/06/24 05:52:50;;;;;;;;;;;;;;;15.27;100.00;99914.06;5135820;27;19928;-76
2021/06/24 05:55:17;;;;;;;;;;;;;;;15.14;100.00;99804.16;5130986;27;19980;-74
2021/06/24 05:57:44;;;;;;;;;;;;;;;14.96;100.00;99798.13;5132523;27;19930;-74
2021/06/24 06:00:13;;;;;;;;;;;;;;;14.91;100.00;99795.81;5135977;27;19927;-74
2021/06/24 06:02:42;;;;;;;;;;;;;;;14.84;100.00;99789.56;5117521;27;20011;-75
2021/06/24 06:05:09;;;;;;;;;;;;;;;14.77;100.00;99786.91;5117468;27;19930;-76
2021/06/24 06:07:36;;;;;;;;;;;;;;;14.71;100.00;99780.97;5116959;27;19927;-76
2021/06/24 06:10:13;;;;;;;;;;;;;;;14.80;100.00;99781.19;5115817;27;19924;-76
2021/06/24 06:12:40;;;;;;;;;;;;;;;14.69;100.00;99777.84;5126324;27;20386;-77
2021/06/24 06:15:08;;;;;;;;;;;;;;;14.74;100.00;99773.72;5124066;27;19976;-77
2021/06/24 06:17:35;;;;;;;;;;;;;;;14.70;100.00;99775.78;5133194;27;20512;-77
2021/06/24 06:20:03;;;;;;;;;;;;;;;14.72;100.00;99773.34;5096917;27;20068;-77
2021/06/24 06:22:30;;;;;;;;;;;;;;;14.71;100.00;99775.34;5130799;27;19928;-77
2021/06/24 06:24:58;;;;;;;;;;;;;;;14.70;100.00;99776.59;5133288;27;19977;-76
2021/06/24 06:27:25;;;;;;;;;;;;;;;14.79;100.00;99778.81;5134721;27;19927;-76
2021/06/24 06:29:52;;;;;;;;;;;;;;;14.81;100.00;99774.34;5129341;27;20007;-76
2021/06/24 06:32:19;;;;;;;;;;;;;;;14.86;100.00;99771.00;5114424;27;19969;-77
2021/06/24 06:34:46;;;;;;;;;;;;;;;14.82;100.00;99773.13;5131916;27;19923;-77
2021/06/24 06:37:13;;;;;;;;;;;;;;;14.83;100.00;99763.44;5126913;27;19924;-76
2021/06/24 06:39:40;;;;;;;;;;;;;;;14.90;100.00;99763.31;5130609;27;19924;-76
2021/06/24 06:42:08;;;;;;;;;;;;;;;14.90;100.00;99763.31;5133061;27;19976;-77
2021/06/24 06:44:36;;;;;;;;;;;;;;;14.97;100.00;99771.56;5134159;27;19927;-76
2021/06/24 06:47:03;;;;;;;;;;;;;;;14.88;100.00;99762.94;5107948;27;20330;-77
2021/06/24 06:49:30;;;;;;;;;;;;;;;14.89;100.00;99772.19;5132451;27;19947;-76
2021/06/24 06:51:57;;;;;;;;;;;;;;;14.97;100.00;99765.94;5130231;27;20286;-77
2021/06/24 06:54:24;;;;;;;;;;;;;;;15.07;100.00;99781.78;5132862;27;19928;-77
2021/06/24 06:56:51;;;;;;;;;;;;;;;15.17;100.00;99763.88;5133259;27;20373;-77
2021/06/24 06:59:19;;;;;;;;;;;;;;;15.01;100.00;99768.69;5104402;27;20065;-77
2021/06/24 07:01:48;;;;;;;;;;;;;;;15.20;100.00;99779.09;5130825;27;19929;-77
2021/06/24 07:04:15;;;;;;;;;;;;;;;15.16;100.00;99784.78;5130879;27;19934;-77
2021/06/24 07:06:43;;;;;;;;;;;;;;;15.21;100.00;99781.47;5112297;28;20048;-77
2021/06/24 07:09:10;;;;;;;;;;;;;;;15.13;100.00;99782.09;5116016;27;19931;-77
2021/06/24 07:11:37;;;;;;;;;;;;;;;15.15;100.00;99780.41;5125712;27;20264;-77
2021/06/24 07:14:04;;;;;;;;;;;;;;;15.02;100.00;99768.25;5113514;28;20339;-77
2021/06/24 07:16:31;;;;;;;;;;;;;;;14.88;100.00;99779.81;5118418;28;19923;-77
2021/06/24 07:18:59;;;;;;;;;;;;;;;14.84;100.00;99776.31;5117742;27;20340;-77
2021/06/24 07:21:26;;;;;;;;;;;;;;;14.78;100.00;99786.47;5109117;28;20046;-77
2021/06/24 07:23:53;;;;;;;;;;;;;;;14.73;100.00;99781.34;5083505;28;19924;-77
2021/06/24 07:26:20;;;;;;;;;;;;;;;14.61;100.00;99770.75;5100047;28;20069;-75
2021/06/24 07:28:47;;;;;;;;;;;;;;;14.45;100.00;99773.50;5103177;28;20026;-76
2021/06/24 07:31:14;;;;;;;;;;;;;;;14.37;100.00;99772.06;5099257;28;20291;-76
2021/06/24 07:33:41;;;;;;;;;;;;;;;14.34;100.00;99775.75;5111966;28;20414;-76
2021/06/24 07:36:09;;;;;;;;;;;;;;;14.23;100.00;99777.94;5100982;28;20311;-76
2021/06/24 07:38:36;;;;;;;;;;;;;;;14.34;100.00;99773.72;5085093;28;20355;-76
2021/06/24 07:41:11;;;;;;;;;;;;;;;14.34;100.00;99772.94;5107829;28;19950;-76
2021/06/24 07:43:38;;;;;;;;;;;;;;;14.33;100.00;99776.94;5084830;28;20443;-75
2021/06/24 07:46:05;;;;;;;;;;;;;;;14.26;100.00;99779.91;5100407;28;20064;-75
2021/06/24 07:48:32;;;;;;;;;;;;;;;14.37;100.00;99783.31;5101843;28;20378;-75
2021/06/24 07:50:59;;;;;;;;;;;;;;;14.33;100.00;99791.00;5095496;28;20526;-75
2021/06/24 07:53:26;;;;;;;;;;;;;;;14.39;100.00;99797.72;5100081;28;20367;-75
2021/06/24 07:55:54;;;;;;;;;;;;;;;14.45;100.00;99795.97;5095228;28;21477;-75
2021/06/24 07:58:21;;;;;;;;;;;;;;;14.68;100.00;99797.97;5122930;28;20371;-75
2021/06/24 08:00:48;;;;;;;;;;;;;;;14.78;100.00;99786.47;5120450;27;19932;-82
2021/06/24 08:03:25;;;;;;;;;;;;;;;14.86;100.00;99882.78;5104771;28;20393;-82
2021/06/24 08:05:52;;;;;;;;;;;;;;;14.93;100.00;99896.69;5091539;28;19925;-80
2021/06/24 08:08:20;;;;;;;;;;;;;;;15.01;100.00;99915.03;5110736;28;20022;-81
2021/06/24 08:10:47;;;;;;;;;;;;;;;15.06;100.00;99923.75;5091932;28;19923;-80
2021/06/24 08:13:14;;;;;;;;;;;;;;;15.14;100.00;99925.19;5107371;28;20354;-81
2021/06/24 08:15:41;;;;;;;;;;;;;;;15.15;100.00;99929.59;5088114;28;19928;-80
2021/06/24 08:18:08;;;;;;;;;;;;;;;15.23;100.00;99925.41;5104957;28;20007;-80
2021/06/24 08:20:35;;;;;;;;;;;;;;;15.37;100.00;99930.75;5108392;28;20084;-80
2021/06/24 08:23:02;;;;;;;;;;;;;;;15.51;100.00;99929.66;5099175;28;19928;-80
2021/06/24 08:25:30;;;;;;;;;;;;;;;15.66;100.00;99931.72;5095390;28;19924;-80
2021/06/24 08:27:57;;;;;;;;;;;;;;;15.63;100.00;99934.63;5104457;28;20296;-79
2021/06/24 08:30:24;;;;;;;;;;;;;;;15.77;100.00;99929.44;5085541;28;19927;-81
2021/06/24 08:32:52;;;;;;;;;;;;;;;15.75;100.00;99923.44;5109078;28;19930;-81
2021/06/24 08:35:20;;;;;;;;;;;;;;;15.73;100.00;99930.75;5089885;28;19935;-81
2021/06/24 08:37:47;;;;;;;;;;;;;;;15.78;100.00;99921.81;5106528;27;19973;-80
2021/06/24 08:40:15;;;;;;;;;;;;;;;15.85;100.00;99916.00;5106773;28;19955;-81
2021/06/24 08:42:43;;;;;;;;;;;;;;;16.03;100.00;99914.34;5120080;27;19924;-81
2021/06/24 08:45:11;;;;;;;;;;;;;;;16.36;100.00;99917.16;5097461;28;20093;-84
2021/06/24 08:47:45;;;;;;;;;;;;;;;16.50;100.00;99914.78;5092822;28;20017;-77
2021/06/24 08:50:13;;;;;;;;;;;;;;;16.59;100.00;99912.09;5101664;28;19924;-76
2021/06/24 08:52:44;;;;;;;;;;;;;;;16.86;100.00;99898.44;5086415;28;19924;-77
2021/06/24 08:55:11;;;;;;;;;;;;;;;16.77;100.00;99886.22;5099979;28;20010;-77
2021/06/24 08:57:39;;;;;;;;;;;;;;;17.08;100.00;99876.84;5130487;27;19930;-78
2021/06/24 09:00:06;;;;;;;;;;;;;;;17.20;100.00;99876.09;5133881;27;19927;-86
2021/06/24 09:02:41;;;;;;;;;;;;;;;17.69;100.00;99755.09;5100604;28;19923;-85
2021/06/24 09:05:09;;;;;;;;;;;;;;;17.78;100.00;99736.19;5095408;28;20004;-85
2021/06/24 09:07:58;;;;;;;;;;;;;;;17.69;100.00;99735.31;5095208;28;19923;-85
2021/06/24 09:10:33;;;;;;;;;;;;;;;18.24;100.00;99719.59;5080684;28;19927;-85
2021/06/24 09:13:05;;;;;;;;;;;;;;;18.63;100.00;99722.59;5079289;28;19923;-85
2021/06/24 09:15:36;;;;;;;;;;;;;;;18.63;100.00;99711.28;5100514;27;19924;-85
2021/06/24 09:18:20;;;;;;;;;;;;;;;18.13;100.00;99699.44;5124998;27;19931;-77
2021/06/24 09:21:03;;;;;;;;;;;;;;;17.92;100.00;99675.53;5103636;28;19924;-87
2021/06/24 09:23:34;;;;;;;;;;;;;;;17.79;100.00;99680.44;5094954;28;19924;-76
2021/06/24 09:26:07;;;;;;;;;;;;;;;17.27;100.00;99675.34;5100521;28;19924;-84
2021/06/24 09:28:39;;;;;;;;;;;;;;;16.99;100.00;99667.00;5102014;28;19928;-85
2021/06/24 09:31:21;;;;;;;;;;;;;;;17.11;100.00;99674.69;5103241;28;19924;-85
2021/06/24 09:33:48;;;;;;;;;;;;;;;17.60;100.00;99673.03;5094764;28;19927;-84
2021/06/24 09:36:32;;;;;;;;;;;;;;;18.08;100.00;99660.41;5111765;28;19973;-82
2021/06/24 09:39:00;;;;;;;;;;;;;;;18.65;100.00;99657.03;5100799;28;20504;-84
2021/06/24 09:41:27;;;;;;;;;;;;;;;18.94;100.00;99655.44;5111363;27;20041;-83
2021/06/24 09:43:56;;;;;;;;;;;;;;;19.25;100.00;99656.19;5080273;28;20022;-82
2021/06/24 09:46:30;;;;;;;;;;;;;;;19.28;100.00;99643.94;5111559;28;19924;-79
2021/06/24 09:49:00;;;;;;;;;;;;;;;19.40;100.00;99633.75;5102371;28;19928;-80
2021/06/24 09:51:29;;;;;;;;;;;;;;;19.47;100.00;99622.88;5118387;27;19947;-82
2021/06/24 09:54:13;;;;;;;;;;;;;;;19.54;100.00;99613.28;5092675;28;19924;-78
2021/06/24 09:56:44;;;;;;;;;;;;;;;19.76;100.00;99610.28;5114079;27;19927;-78
2021/06/24 09:59:15;;;;;;;;;;;;;;;19.38;100.00;99602.25;5113623;27;19928;-77
2021/06/24 10:01:44;;;;;;;;;;;;;;;19.32;100.00;99599.25;5123131;27;19928;-78
2021/06/24 10:04:21;;;;;;;;;;;;;;;18.89;100.00;99598.63;5107524;28;19953;-77
2021/06/24 10:06:49;;;;;;;;;;;;;;;19.05;100.00;99585.00;5109419;28;19931;-78
2021/06/24 10:09:17;;;;;;;;;;;;;;;18.92;100.00;99590.00;5108178;28;19969;-77
2021/06/24 10:11:45;;;;;;;;;;;;;;;18.66;100.00;99577.31;5091196;28;19973;-78
2021/06/24 10:14:15;;;;;;;;;;;;;;;18.45;100.00;99574.56;5108079;28;19985;-78
2021/06/24 10:16:50;;;;;;;;;;;;;;;18.39;100.00;99580.03;5097279;28;20068;-77
2021/06/24 10:19:19;;;;;;;;;;;;;;;18.36;100.00;99577.34;5109390;28;19931;-78
2021/06/24 10:21:49;;;;;;;;;;;;;;;18.49;100.00;99575.22;5127165;27;20399;-78
2021/06/24 10:24:19;;;;;;;;;;;;;;;18.71;100.00;99582.38;5127903;27;19966;-78
2021/06/24 10:26:50;;;;;;;;;;;;;;;18.56;100.00;99574.91;5126626;27;19962;-78
2021/06/24 10:29:18;;;;;;;;;;;;;;;18.18;100.00;99574.38;5131660;27;19950;-78
2021/06/24 10:31:47;;;;;;;;;;;;;;;18.63;100.00;99581.09;5131724;27;19924;-78
2021/06/24 10:34:15;;;;;;;;;;;;;;;18.69;100.00;99579.22;5133807;27;20289;-78
2021/06/24 10:37:01;;;;;;;;;;;;;;;18.83;100.00;99578.66;5133606;27;19975;-78
2021/06/24 10:39:35;;;;;;;;;;;;;;;18.92;100.00;99587.16;5113423;27;19923;-78
2021/06/24 10:42:04;;;;;;;;;;;;;;;19.04;100.00;99576.97;5129405;27;19924;-78
2021/06/24 10:44:51;;;;;;;;;;;;;;;18.90;100.00;99584.00;5132246;27;19927;-77
2021/06/24 10:47:26;;;;;;;;;;;;;;;19.02;100.00;99573.81;5092392;28;19923;-77
2021/06/24 10:49:53;;;;;;;;;;;;;;;19.13;100.00;99574.94;5107314;28;19946;-78
2021/06/24 10:52:27;;;;;;;;;;;;;;;19.15;100.00;99574.47;5112564;28;19931;-77
2021/06/24 10:54:55;;;;;;;;;;;;;;;18.92;100.00;99570.19;5109618;28;20019;-77
2021/06/24 10:57:32;;;;;;;;;;;;;;;18.84;100.00;99557.56;5129760;27;19923;-77
2021/06/24 11:00:18;;;;;;;;;;;;;;;18.93;100.00;99551.91;5127991;27;19923;-77
2021/06/24 11:02:47;;;;;;;;;;;;;;;19.07;100.00;99553.38;5128688;27;19924;-78
2021/06/24 11:05:18;;;;;;;;;;;;;;;19.45;100.00;99551.72;5112199;27;19927;-78
2021/06/24 11:07:45;;;;;;;;;;;;;;;19.44;100.00;99538.81;5103910;28;20421;-78
2021/06/24 11:10:13;;;;;;;;;;;;;;;19.89;100.00;99545.72;5106634;28;19930;-77
2021/06/24 11:12:54;;;;;;;;;;;;;;;20.50;100.00;99533.88;5104503;28;19993;-78
2021/06/24 11:15:39;;;;;;;;;;;;;;;20.87;100.00;99538.91;5106490;28;19981;-78
2021/06/24 11:18:07;;;;;;;;;;;;;;;20.83;100.00;99526.16;5105144;28;20445;-77
2021/06/24 11:20:42;;;;;;;;;;;;;;;20.74;100.00;99527.00;5108153;28;19928;-78
2021/06/24 11:23:44;;;;;;;;;;;;;;;20.36;100.00;99514.69;5109355;27;19924;-77
2021/06/24 11:26:15;;;;;;;;;;;;;;;19.92;100.00;99513.56;5028840;28;19949;-78
2021/06/24 11:28:47;;;;;;;;;;;;;;;19.73;100.00;99505.06;5030713;28;19925;-78
2021/06/24 11:31:16;;;;;;;;;;;;;;;19.87;100.00;99509.31;5030267;28;20679;-78
2021/06/24 11:33:57;;;;;;;;;;;;;;;19.63;100.00;99503.53;5030124;28;19953;-78
2021/06/24 11:36:25;;;;;;;;;;;;;;;19.29;100.00;99489.72;5023560;28;19925;-77
2021/06/24 11:38:52;;;;;;;;;;;;;;;19.09;100.00;99495.00;5026999;28;19931;-77
2021/06/24 11:41:20;;;;;;;;;;;;;;;19.06;100.00;99501.63;5028577;28;19936;-78
2021/06/24 11:43:58;;;;;;;;;;;;;;;19.06;100.00;99501.63;5030616;28;19949;-78
2021/06/24 11:46:29;;;;;;;;;;;;;;;19.02;100.00;99506.63;5028929;28;19929;-77
2021/06/24 11:49:04;;;;;;;;;;;;;;;18.37;100.00;99511.00;5030588;28;20304;-77
2021/06/24 12:05:29;;;;;;;;;;;;;;;18.41;100.00;99506.81;5110311;28;19935;-77
2021/06/24 12:07:56;;;;;;;;;;;;;;;18.56;100.00;99504.16;5131068;27;19928;-77
2021/06/24 12:10:23;;;;;;;;;;;;;;;18.63;100.00;99507.50;5129762;27;20442;-77
2021/06/24 12:12:51;;;;;;;;;;;;;;;18.59;100.00;99506.88;5090982;28;19924;-77
2021/06/24 12:15:18;;;;;;;;;;;;;;;18.12;100.00;99500.66;5108357;28;19928;-77
2021/06/24 12:17:47;;;;;;;;;;;;;;;17.97;100.00;99510.97;5121453;27;20476;-77
2021/06/24 12:20:18;;;;;;;;;;;;;;;18.03;100.00;99523.25;5126995;27;20010;-77
2021/06/24 12:23:06;;;;;;;;;;;;;;;17.96;100.00;99507.34;5108344;28;20395;-77
2021/06/24 12:25:35;;;;;;;;;;;;;;;17.84;100.00;99507.44;5098218;28;20313;-77
2021/06/24 12:28:04;;;;;;;;;;;;;;;17.87;100.00;99512.16;5120237;27;19924;-77
2021/06/24 12:30:32;;;;;;;;;;;;;;;17.86;100.00;99504.91;5123500;27;19932;-77
2021/06/24 12:33:02;;;;;;;;;;;;;;;17.99;100.00;99520.53;5124420;27;19947;-77
2021/06/24 12:35:31;;;;;;;;;;;;;;;18.26;100.00;99511.44;5115011;28;19969;-77
2021/06/24 12:38:00;;;;;;;;;;;;;;;18.65;100.00;99510.66;5115931;28;19932;-78
2021/06/24 12:40:42;;;;;;;;;;;;;;;19.12;100.00;99498.94;5123717;27;19923;-76
2021/06/24 12:43:15;;;;;;;;;;;;;;;18.95;100.00;99489.16;5129806;27;19951;-77
2021/06/24 12:45:45;;;;;;;;;;;;;;;18.63;100.00;99493.34;5117451;27;19923;-76
2021/06/24 12:48:25;;;;;;;;;;;;;;;18.18;100.00;99503.66;5115450;27;19924;-76
2021/06/24 12:50:53;;;;;;;;;;;;;;;18.13;100.00;99507.91;5113326;27;19923;-77
2021/06/24 12:53:27;;;;;;;;;;;;;;;18.34;100.00;99495.75;5129216;27;19931;-76
2021/06/24 12:55:54;;;;;;;;;;;;;;;18.50;100.00;99504.00;5126646;27;19923;-74
2021/06/24 12:58:21;;;;;;;;;;;;;;;18.47;100.00;99499.28;5135293;27;19931;-77
2021/06/24 13:00:52;;;;;;;;;;;;;;;18.23;100.00;99495.38;5118018;27;20423;-77
2021/06/24 13:03:40;;;;;;;;;;;;;;;18.18;100.00;99487.50;5114578;27;19966;-77
2021/06/24 13:06:13;;;;;;;;;;;;;;;18.48;100.00;99488.75;5089106;28;20380;-77
2021/06/24 13:09:00;;;;;;;;;;;;;;;18.53;100.00;99479.63;5113790;28;19931;-77
2021/06/24 13:11:34;;;;;;;;;;;;;;;18.14;100.00;99480.41;5116349;28;19969;-77